createdAt,value
2018-08-16T00:00:36.676Z,11.40
2018-08-16T00:03:07.455Z,14.93
2018-08-16T00:05:38.303Z,11.13
2018-08-16T00:08:08.231Z,13.40
2018-08-16T00:10:39.942Z,10.13
2018-08-16T00:13:11.487Z,13.27
2018-08-16T00:15:43.267Z,12.70
2018-08-16T00:18:12.975Z,17.33
2018-08-16T00:20:42.579Z,13.63
2018-08-16T00:23:12.363Z,13.63
2018-08-16T00:25:42.110Z,10.97
2018-08-16T00:28:14.375Z,10.60
2018-08-16T00:30:46.015Z,11.33
2018-08-16T00:33:16.893Z,11.53
2018-08-16T00:35:50.523Z,11.30
2018-08-16T00:38:23.678Z,13.60
2018-08-16T00:40:53.303Z,10.40
2018-08-16T00:43:24.098Z,11.37
2018-08-16T00:45:55.015Z,11.87
2018-08-16T00:48:24.691Z,14.63
2018-08-16T00:50:55.483Z,11.77
2018-08-16T00:53:25.383Z,11.33
2018-08-16T00:55:55.327Z,12.67
2018-08-16T00:58:32.083Z,13.43
2018-08-16T01:01:06.459Z,10.60
2018-08-16T01:03:36.364Z,12.43
2018-08-16T01:06:11.327Z,18.30
2018-08-16T01:08:43.171Z,10.93
2018-08-16T01:11:13.106Z,12.70
2018-08-16T01:13:45.003Z,16.73
2018-08-16T01:16:20.138Z,15.37
2018-08-16T01:18:52.911Z,12.00
2018-08-16T01:21:22.662Z,14.13
2018-08-16T01:23:54.568Z,17.03
2018-08-16T01:26:25.251Z,13.47
2018-08-16T01:28:56.018Z,15.63
2018-08-16T01:31:30.598Z,13.60
2018-08-16T01:34:00.511Z,13.37
2018-08-16T01:36:31.390Z,14.00
2018-08-16T01:39:11.102Z,11.53
2018-08-16T01:41:41.983Z,19.77
2018-08-16T01:44:11.858Z,13.53
2018-08-16T01:46:41.823Z,16.63
2018-08-16T01:49:27.314Z,17.30
2018-08-16T01:51:59.298Z,13.10
2018-08-16T01:54:29.702Z,13.33
2018-08-16T01:57:03.722Z,13.13
2018-08-16T01:59:34.390Z,14.70
2018-08-16T02:02:04.094Z,16.60
2018-08-16T02:04:34.614Z,13.23
2018-08-16T02:07:05.427Z,14.70
2018-08-16T02:09:35.278Z,12.03
2018-08-16T02:12:04.882Z,15.10
2018-08-16T02:14:35.744Z,15.50
2018-08-16T02:17:05.694Z,14.03
2018-08-16T02:19:36.559Z,13.17
2018-08-16T02:22:08.239Z,12.83
2018-08-16T02:24:42.327Z,14.33
2018-08-16T02:27:17.734Z,14.70
2018-08-16T02:29:48.414Z,16.70
2018-08-16T02:32:20.303Z,12.73
2018-08-16T02:34:51.194Z,14.07
2018-08-16T02:37:22.074Z,14.93
2018-08-16T02:39:53.927Z,16.47
2018-08-16T02:42:27.510Z,16.97
2018-08-16T02:45:08.767Z,15.63
2018-08-16T02:47:49.486Z,14.70
2018-08-16T02:50:19.118Z,15.20
2018-08-16T02:52:49.934Z,12.53
2018-08-16T02:55:21.858Z,17.73
2018-08-16T02:57:58.586Z,15.27
2018-08-16T03:00:29.490Z,13.87
2018-08-16T03:03:03.902Z,12.63
2018-08-16T03:05:33.803Z,16.70
2018-08-16T03:08:05.718Z,19.90
2018-08-16T03:10:35.238Z,15.23
2018-08-16T03:13:06.106Z,13.07
2018-08-16T03:15:38.986Z,15.60
2018-08-16T03:18:09.822Z,15.70
2018-08-16T03:20:40.354Z,15.63
2018-08-16T03:23:11.921Z,16.30
2018-08-16T03:25:44.825Z,12.23
2018-08-16T03:28:14.650Z,12.47
2018-08-16T03:30:45.354Z,12.63
2018-08-16T03:33:15.934Z,15.93
2018-08-16T03:35:45.650Z,14.90
2018-08-16T03:38:16.531Z,15.70
2018-08-16T03:40:55.454Z,15.10
2018-08-16T03:43:28.214Z,14.80
2018-08-16T03:45:58.826Z,14.93
2018-08-16T03:48:28.706Z,15.40
2018-08-16T03:51:48.254Z,16.40
2018-08-16T03:54:28.410Z,17.67
2018-08-16T03:56:59.839Z,13.63
2018-08-16T03:59:29.770Z,16.70
2018-08-16T04:02:05.502Z,17.10
2018-08-16T04:04:37.282Z,18.90
2018-08-16T04:09:32.674Z,17.73
2018-08-16T04:12:17.434Z,16.57
2018-08-16T04:14:47.255Z,15.73
2018-08-16T04:17:18.814Z,19.87
2018-08-16T04:19:48.521Z,14.90
2018-08-16T04:22:18.455Z,13.83
2018-08-16T04:24:49.343Z,14.97
2018-08-16T04:27:19.114Z,17.30
2018-08-16T04:29:48.966Z,16.53
2018-08-16T04:32:19.786Z,15.17
2018-08-16T04:34:49.746Z,17.43
2018-08-16T04:37:24.129Z,20.70
2018-08-16T04:39:57.770Z,13.90
2018-08-16T04:42:30.934Z,17.50
2018-08-16T04:45:01.694Z,17.20
2018-08-16T04:47:39.510Z,17.90
2018-08-16T04:50:14.385Z,17.40
2018-08-16T04:52:43.926Z,15.80
2018-08-16T04:55:23.508Z,17.50
2018-08-16T04:57:54.309Z,19.50
2018-08-16T05:00:24.217Z,22.87
2018-08-16T05:02:56.067Z,17.97
2018-08-16T05:05:38.101Z,15.27
2018-08-16T05:08:08.897Z,18.53
2018-08-16T05:10:39.429Z,20.27
2018-08-16T05:13:10.018Z,14.53
2018-08-16T05:15:40.855Z,16.20
2018-08-16T05:18:10.565Z,15.63
2018-08-16T05:20:42.178Z,16.27
2018-08-16T05:23:11.913Z,19.27
2018-08-16T05:25:42.605Z,15.53
2018-08-16T05:28:13.149Z,16.17
2018-08-16T05:30:42.941Z,18.03
2018-08-16T05:33:13.589Z,16.50
2018-08-16T05:35:43.215Z,14.10
2018-08-16T05:38:13.006Z,14.00
2018-08-16T05:40:42.633Z,17.50
2018-08-16T05:43:16.796Z,12.93
2018-08-16T05:45:50.345Z,12.10
2018-08-16T05:48:21.049Z,12.30
2018-08-16T05:50:54.133Z,10.03
2018-08-16T05:53:23.553Z,11.33
2018-08-16T05:55:57.549Z,10.90
2018-08-16T05:58:27.326Z,11.00
2018-08-16T06:01:02.802Z,10.83
2018-08-16T06:03:32.637Z,12.20
2018-08-16T06:06:03.575Z,10.43
2018-08-16T06:08:33.470Z,11.90
2018-08-16T06:11:10.078Z,9.63
2018-08-16T06:13:41.148Z,9.30
2018-08-16T06:16:11.029Z,8.93
2018-08-16T06:18:40.702Z,8.23
2018-08-16T06:21:10.530Z,8.43
2018-08-16T06:23:41.350Z,10.17
2018-08-16T06:26:22.702Z,12.83
2018-08-16T06:28:58.394Z,8.77
2018-08-16T06:31:32.938Z,8.80
2018-08-16T06:34:03.754Z,10.90
2018-08-16T06:36:37.093Z,8.10
2018-08-16T06:39:13.641Z,8.90
2018-08-16T06:41:44.358Z,7.27
2018-08-16T06:44:14.121Z,7.30
2018-08-16T06:46:44.797Z,9.53
2018-08-16T06:49:19.354Z,7.00
2018-08-16T06:51:50.990Z,10.97
2018-08-16T06:54:26.492Z,7.27
2018-08-16T06:56:56.213Z,10.30
2018-08-16T06:59:28.050Z,8.43
2018-08-16T07:01:57.870Z,6.67
2018-08-16T07:04:32.905Z,6.63
2018-08-16T07:07:03.765Z,6.03
2018-08-16T07:09:34.530Z,6.70
2018-08-16T07:12:05.350Z,5.47
2018-08-16T07:14:35.261Z,6.23
2018-08-16T07:17:05.082Z,5.67
2018-08-16T07:19:34.841Z,5.40
2018-08-16T07:22:04.670Z,5.53
2018-08-16T07:24:38.102Z,4.90
2018-08-16T07:27:14.381Z,5.27
2018-08-16T07:32:44.083Z,4.63
2018-08-16T07:35:13.789Z,4.83
2018-08-16T07:37:43.242Z,5.37
2018-08-16T07:40:18.722Z,4.87
2018-08-16T07:42:48.530Z,10.23
2018-08-16T07:45:24.036Z,3.83
2018-08-16T07:48:07.830Z,3.80
2018-08-16T07:50:40.598Z,8.00
2018-08-16T07:53:16.042Z,4.13
2018-08-16T07:55:47.954Z,4.60
2018-08-16T07:58:41.690Z,3.60
2018-08-16T08:01:15.361Z,4.27
2018-08-16T08:03:45.158Z,4.13
2018-08-16T08:06:38.834Z,3.80
2018-08-16T08:09:10.390Z,3.80
2018-08-16T08:11:44.765Z,5.73
2018-08-16T08:14:22.834Z,3.60
2018-08-16T08:16:53.701Z,6.47
2018-08-16T08:19:23.554Z,3.40
2018-08-16T08:21:54.329Z,3.77
2018-08-16T08:24:25.129Z,3.20
2018-08-16T08:27:19.183Z,3.40
2018-08-16T08:29:52.630Z,5.10
2018-08-16T08:32:22.522Z,4.30
2018-08-16T08:35:00.686Z,3.17
2018-08-16T08:38:09.618Z,3.87
2018-08-16T08:40:40.450Z,2.90
2018-08-16T08:43:31.226Z,4.43
2018-08-16T08:46:01.202Z,2.90
2018-08-16T08:48:32.010Z,3.20
2018-08-16T08:51:01.862Z,3.10
2018-08-16T08:54:53.563Z,2.73
2018-08-16T08:57:41.759Z,4.10
2018-08-16T09:00:19.590Z,3.67
2018-08-16T09:03:10.641Z,3.13
2018-08-16T09:05:42.406Z,9.87
2018-08-16T09:08:12.174Z,2.97
2018-08-16T09:11:00.178Z,2.23
2018-08-16T09:13:48.102Z,2.80
2018-08-16T09:16:21.193Z,3.73
2018-08-16T09:18:59.321Z,5.90
2018-08-16T09:21:41.286Z,2.80
2018-08-16T09:24:22.142Z,2.20
2018-08-16T09:26:58.063Z,3.17
2018-08-16T09:30:17.218Z,3.33
2018-08-16T09:33:06.046Z,2.47
2018-08-16T09:35:36.078Z,2.53
2018-08-16T09:38:09.526Z,2.93
2018-08-16T09:40:42.587Z,2.23
2018-08-16T09:43:14.266Z,1.57
2018-08-16T09:48:43.630Z,3.00
2018-08-16T09:51:13.416Z,2.60
2018-08-16T09:53:43.010Z,5.43
2018-08-16T09:56:12.854Z,2.00
2018-08-16T09:58:46.883Z,2.03
2018-08-16T10:01:22.362Z,6.60
2018-08-16T10:03:58.802Z,2.57
2018-08-16T10:06:32.233Z,2.07
2018-08-16T10:09:11.502Z,1.70
2018-08-16T10:11:41.411Z,2.30
2018-08-16T10:14:15.062Z,3.07
2018-08-16T10:16:44.838Z,1.70
2018-08-16T10:19:14.622Z,1.93
2018-08-16T10:21:58.409Z,1.97
2018-08-16T10:24:28.958Z,2.17
2018-08-16T10:27:15.238Z,2.50
2018-08-16T10:29:45.122Z,1.50
2018-08-16T10:32:15.902Z,1.93
2018-08-16T10:34:49.846Z,2.07
2018-08-16T10:37:19.622Z,4.40
2018-08-16T10:39:49.437Z,1.53
2018-08-16T10:42:22.513Z,2.60
2018-08-16T10:45:05.330Z,2.03
2018-08-16T10:47:35.162Z,1.63
2018-08-16T10:53:07.346Z,3.47
2018-08-16T10:55:53.693Z,2.67
2018-08-16T10:58:25.502Z,1.70
2018-08-16T11:07:06.102Z,1.90
2018-08-16T11:09:40.430Z,2.20
2018-08-16T11:12:38.942Z,2.27
2018-08-16T11:15:14.021Z,1.70
2018-08-16T11:17:47.442Z,1.73
2018-08-16T11:20:25.557Z,2.53
2018-08-16T11:22:56.397Z,1.67
2018-08-16T11:25:26.937Z,3.33
2018-08-16T11:27:57.634Z,2.13
2018-08-16T11:30:27.482Z,1.97
2018-08-16T11:33:00.842Z,3.83
2018-08-16T11:35:30.368Z,1.60
2018-08-16T11:38:11.214Z,1.40
2018-08-16T11:40:41.164Z,4.03
2018-08-16T11:43:12.953Z,2.90
2018-08-16T11:45:44.557Z,2.10
2018-08-16T11:48:19.594Z,2.03
2018-08-16T11:50:53.130Z,2.70
2018-08-16T11:53:23.954Z,1.90
2018-08-16T11:55:58.097Z,1.80
2018-08-16T11:58:32.744Z,1.97
2018-08-16T12:01:04.498Z,1.73
2018-08-16T12:03:36.114Z,3.67
2018-08-16T12:06:06.018Z,2.23
2018-08-16T12:08:35.809Z,2.70
2018-08-16T12:11:07.990Z,2.07
2018-08-16T12:13:41.994Z,2.03
2018-08-16T12:16:11.814Z,2.00
2018-08-16T12:18:41.374Z,2.20
2018-08-16T12:21:19.670Z,2.20
2018-08-16T12:24:00.038Z,2.67
2018-08-16T12:26:29.906Z,2.13
2018-08-16T12:28:59.607Z,2.23
2018-08-16T12:31:29.249Z,1.93
2018-08-16T12:34:01.110Z,2.30
2018-08-16T12:36:31.017Z,2.70
2018-08-16T12:39:00.602Z,2.23
2018-08-16T12:41:30.450Z,2.17
2018-08-16T12:44:00.230Z,2.30
2018-08-16T12:46:31.042Z,8.73
2018-08-16T12:49:00.628Z,2.03
2018-08-16T12:51:30.390Z,1.73
2018-08-16T12:54:00.311Z,2.70
2018-08-16T12:56:41.034Z,1.80
2018-08-16T12:59:12.869Z,1.97
2018-08-16T13:01:50.286Z,2.00
2018-08-16T13:04:28.145Z,1.40
2018-08-16T13:06:58.793Z,3.33
2018-08-16T13:09:28.489Z,3.70
2018-08-16T13:12:02.329Z,1.63
2018-08-16T13:14:33.101Z,1.73
2018-08-16T13:17:05.540Z,1.77
2018-08-16T13:19:35.383Z,1.73
2018-08-16T13:22:05.233Z,1.43
2018-08-16T13:24:37.032Z,5.10
2018-08-16T13:27:07.004Z,1.67
2018-08-16T13:29:36.770Z,3.77
2018-08-16T13:32:06.941Z,2.37
2018-08-16T13:34:37.497Z,1.93
2018-08-16T13:37:09.355Z,1.53
2018-08-16T13:39:40.109Z,1.47
2018-08-16T13:42:09.956Z,1.50
2018-08-16T13:44:39.622Z,1.60
2018-08-16T13:47:09.362Z,1.60
2018-08-16T13:49:39.337Z,1.50
2018-08-16T13:52:10.142Z,1.37
2018-08-16T13:54:40.034Z,1.87
2018-08-16T13:57:13.762Z,1.50
2018-08-16T13:59:48.421Z,1.77
2018-08-16T14:02:20.253Z,1.47
2018-08-16T14:05:02.573Z,3.43
2018-08-16T14:07:32.457Z,1.37
2018-08-16T14:10:02.345Z,1.70
2018-08-16T14:12:33.232Z,8.10
2018-08-16T14:15:08.157Z,1.67
2018-08-16T14:17:38.101Z,1.93
2018-08-16T14:20:09.429Z,1.73
2018-08-16T14:22:39.169Z,1.73
2018-08-16T14:25:09.915Z,12.23
2018-08-16T14:27:39.829Z,1.60
2018-08-16T14:30:13.477Z,1.57
2018-08-16T14:32:43.105Z,3.33
2018-08-16T14:35:14.869Z,1.70
2018-08-16T14:37:48.912Z,1.43
2018-08-16T14:40:24.901Z,1.57
2018-08-16T14:42:54.777Z,1.80
2018-08-16T14:45:26.570Z,3.17
2018-08-16T14:47:56.462Z,1.50
2018-08-16T14:50:31.049Z,1.47
2018-08-16T14:53:00.834Z,3.93
2018-08-16T14:55:38.273Z,1.77
2018-08-16T14:58:09.889Z,1.60
2018-08-16T15:00:39.341Z,1.87
2018-08-16T15:03:09.846Z,1.93
2018-08-16T15:05:39.633Z,1.40
2018-08-16T15:08:10.416Z,1.80
2018-08-16T15:10:39.987Z,1.80
2018-08-16T15:13:09.677Z,1.67
2018-08-16T15:15:40.181Z,1.50
2018-08-16T15:18:09.925Z,1.67
2018-08-16T15:20:40.581Z,2.60
2018-08-16T15:23:12.329Z,3.00
2018-08-16T15:25:41.953Z,2.63
2018-08-16T15:28:11.413Z,6.80
2018-08-16T15:30:43.736Z,1.70
2018-08-16T15:33:18.033Z,5.33
2018-08-16T15:35:51.077Z,2.57
2018-08-16T15:38:38.674Z,1.60
2018-08-16T15:41:13.837Z,1.40
2018-08-16T15:43:45.625Z,1.70
2018-08-16T15:46:33.596Z,1.33
2018-08-16T15:49:03.473Z,6.20
2018-08-16T15:51:33.053Z,2.47
2018-08-16T15:54:02.688Z,1.47
2018-08-16T15:56:40.609Z,1.97
2018-08-16T15:59:27.009Z,1.90
2018-08-16T16:02:19.300Z,1.93
2018-08-16T16:04:51.069Z,1.83
2018-08-16T16:07:24.473Z,1.80
2018-08-16T16:09:54.260Z,2.23
2018-08-16T16:12:29.608Z,1.90
2018-08-16T16:15:01.397Z,2.33
2018-08-16T16:17:39.357Z,2.00
2018-08-16T16:20:12.461Z,2.10
2018-08-16T16:22:48.212Z,1.63
2018-08-16T16:25:19.661Z,4.23
2018-08-16T16:27:50.459Z,3.17
2018-08-16T16:30:24.758Z,3.17
2018-08-16T16:33:00.961Z,5.90
2018-08-16T16:35:38.924Z,2.10
2018-08-16T16:38:12.575Z,2.40
2018-08-16T16:40:44.040Z,2.90
2018-08-16T16:43:15.185Z,2.57
2018-08-16T16:45:49.821Z,1.80
2018-08-16T16:48:20.596Z,5.30
2018-08-16T16:50:55.290Z,2.17
2018-08-16T16:53:30.904Z,2.60
2018-08-16T16:56:00.885Z,2.63
2018-08-16T16:58:33.985Z,3.23
2018-08-16T17:01:05.896Z,12.70
2018-08-16T17:03:36.789Z,7.50
2018-08-16T17:06:07.368Z,3.83
2018-08-16T17:08:37.912Z,4.07
2018-08-16T17:11:12.432Z,3.30
2018-08-16T17:13:47.732Z,2.80
2018-08-16T17:16:24.509Z,2.77
2018-08-16T17:18:54.348Z,2.83
2018-08-16T17:21:27.148Z,9.10
2018-08-16T17:23:57.101Z,2.70
2018-08-16T17:26:39.112Z,3.10
2018-08-16T17:29:10.005Z,2.60
2018-08-16T17:31:39.604Z,2.90
2018-08-16T17:34:09.385Z,2.50
2018-08-16T17:36:39.005Z,2.90
2018-08-16T17:39:15.236Z,2.70
2018-08-16T17:41:47.113Z,4.33
2018-08-16T17:44:21.745Z,2.50
2018-08-16T17:46:51.497Z,9.67
2018-08-16T17:49:21.429Z,3.47
2018-08-16T17:51:55.938Z,2.77
2018-08-16T17:54:26.813Z,2.23
2018-08-16T17:57:15.129Z,2.67
2018-08-16T17:59:46.733Z,3.30
2018-08-16T18:02:39.333Z,3.20
2018-08-16T18:05:12.753Z,3.00
2018-08-16T18:07:55.472Z,3.33
2018-08-16T18:10:31.497Z,2.73
2018-08-16T18:13:07.330Z,2.50
2018-08-16T18:15:38.121Z,4.10
2018-08-16T18:18:08.970Z,2.40
2018-08-16T18:20:41.841Z,3.10
2018-08-16T18:23:14.813Z,5.40
2018-08-16T18:25:46.565Z,4.97
2018-08-16T18:28:20.393Z,4.47
2018-08-16T18:30:51.053Z,4.00
2018-08-16T18:33:21.037Z,4.07
2018-08-16T18:35:50.891Z,3.00
2018-08-16T18:38:20.741Z,4.23
2018-08-16T18:40:52.573Z,20.70
2018-08-16T18:43:22.212Z,16.30
2018-08-16T18:45:57.716Z,11.70
2018-08-16T18:48:29.528Z,5.93
2018-08-16T18:51:02.385Z,3.57
2018-08-16T18:53:36.034Z,3.33
2018-08-16T18:56:11.317Z,4.40
2018-08-16T18:58:52.297Z,4.70
2018-08-16T19:01:25.548Z,5.43
2018-08-16T19:04:06.157Z,3.30
2018-08-16T19:06:38.992Z,6.80
2018-08-16T19:09:15.500Z,3.43
2018-08-16T19:11:46.355Z,2.77
2018-08-16T19:14:22.203Z,5.80
2018-08-16T19:16:52.064Z,2.47
2018-08-16T19:19:23.924Z,3.40
2018-08-16T19:21:58.019Z,16.40
2018-08-16T19:24:29.968Z,4.67
2018-08-16T19:26:59.813Z,3.23
2018-08-16T19:29:30.632Z,3.60
2018-08-16T19:32:04.813Z,2.70
2018-08-16T19:34:36.284Z,3.30
2018-08-16T19:37:07.065Z,4.00
2018-08-16T19:39:37.500Z,3.70
2018-08-16T19:42:07.201Z,7.33
2018-08-16T19:44:42.356Z,5.17
2018-08-16T19:47:20.252Z,2.80
2018-08-16T19:49:50.225Z,5.90
2018-08-16T19:52:24.832Z,3.13
2018-08-16T19:55:06.120Z,4.13
2018-08-16T19:57:39.584Z,3.73
2018-08-16T20:00:13.172Z,7.90
2018-08-16T20:02:48.226Z,5.80
2018-08-16T20:05:31.172Z,3.83
2018-08-16T20:08:00.948Z,3.70
2018-08-16T20:10:32.532Z,3.37
2018-08-16T20:13:03.350Z,3.30
2018-08-16T20:15:36.663Z,4.47
2018-08-16T20:18:06.235Z,3.93
2018-08-16T20:20:35.803Z,6.07
2018-08-16T20:23:06.332Z,3.00
2018-08-16T20:25:35.824Z,6.57
2018-08-16T20:28:12.844Z,4.30
2018-08-16T20:30:42.720Z,3.30
2018-08-16T20:33:14.632Z,2.97
2018-08-16T20:35:44.552Z,5.50
2018-08-16T20:38:18.964Z,4.80
2018-08-16T20:40:54.611Z,7.17
2018-08-16T20:43:26.268Z,3.70
2018-08-16T20:45:59.228Z,3.27
2018-08-16T20:48:29.179Z,6.43
2018-08-16T20:51:00.832Z,5.43
2018-08-16T20:53:35.968Z,4.30
2018-08-16T20:56:11.112Z,4.70
2018-08-16T20:58:45.808Z,4.30
2018-08-16T21:01:28.092Z,3.97
2018-08-16T21:04:00.592Z,4.00
2018-08-16T21:06:35.792Z,5.47
2018-08-16T21:09:08.076Z,3.80
2018-08-16T21:11:39.975Z,3.73
2018-08-16T21:14:13.676Z,3.83
2018-08-16T21:16:47.620Z,5.40
2018-08-16T21:19:19.585Z,3.33
2018-08-16T21:21:55.685Z,5.43
2018-08-16T21:24:26.586Z,5.03
2018-08-16T21:26:57.452Z,5.17
2018-08-16T21:29:27.088Z,3.93
2018-08-16T21:31:57.028Z,4.90
2018-08-16T21:34:30.582Z,6.43
2018-08-16T21:37:10.907Z,9.60
2018-08-16T21:39:48.019Z,9.40
2018-08-16T21:42:17.848Z,5.40
2018-08-16T21:44:48.760Z,7.57
2018-08-16T21:47:18.732Z,7.60
2018-08-16T21:49:49.432Z,6.67
2018-08-16T21:52:24.566Z,8.80
2018-08-16T21:54:54.303Z,6.90
2018-08-16T21:57:25.136Z,9.73
2018-08-16T21:59:55.860Z,8.43
2018-08-16T22:02:26.751Z,5.87
2018-08-16T22:04:57.640Z,10.63
2018-08-16T22:08:12.096Z,9.53
2018-08-16T22:10:43.372Z,6.27
2018-08-16T22:13:16.491Z,9.20
2018-08-16T22:15:52.277Z,9.03
2018-08-16T22:18:27.811Z,5.33
2018-08-16T22:20:57.475Z,8.40
2018-08-16T22:23:28.347Z,8.13
2018-08-16T22:25:59.046Z,7.00
2018-08-16T22:28:29.724Z,9.60
2018-08-16T22:31:12.638Z,5.23
2018-08-16T22:33:42.587Z,6.10
2018-08-16T22:36:24.462Z,4.80
2018-08-16T22:38:58.467Z,5.83
2018-08-16T22:41:29.051Z,8.23
2018-08-16T22:44:12.499Z,7.03
2018-08-16T22:46:42.131Z,5.27
2018-08-16T22:49:25.175Z,5.07
2018-08-16T22:51:58.343Z,4.60
2018-08-16T22:54:31.939Z,5.10
2018-08-16T22:57:03.991Z,5.40
2018-08-16T22:59:33.675Z,5.60
2018-08-16T23:02:10.527Z,5.10
2018-08-16T23:04:40.031Z,5.10
2018-08-16T23:07:11.931Z,5.30
2018-08-16T23:09:55.343Z,5.30
2018-08-16T23:12:31.031Z,5.67
2018-08-16T23:15:02.976Z,5.00
2018-08-16T23:17:38.532Z,7.50
2018-08-16T23:20:11.547Z,5.43
2018-08-16T23:22:49.007Z,5.00
2018-08-16T23:25:18.651Z,4.80
2018-08-16T23:27:56.220Z,5.53
2018-08-16T23:30:29.995Z,7.10
2018-08-16T23:33:01.840Z,5.27
2018-08-16T23:35:36.332Z,5.10
2018-08-16T23:38:07.327Z,5.10
2018-08-16T23:40:37.959Z,4.93
2018-08-16T23:43:08.111Z,5.47
2018-08-16T23:45:43.108Z,5.83
2018-08-16T23:48:25.419Z,5.13
2018-08-16T23:51:06.151Z,8.70
2018-08-16T23:53:40.743Z,4.07
2018-08-16T23:56:14.615Z,11.30
2018-08-16T23:58:44.528Z,4.87
